Time;durP1;ratioP1;P1;durP2;ratioP2;P2;SDS_P1;SDS_P2;PMS_P1;PMS_P2;Temp;Humidity;BMP_temperature;BMP_pressure;BME280_temperature;BME280_humidity;BME280_pressure;Samples;Min_cycle;Max_cycle;Signal;HPM_P1;HPM_P2
2022/08/29 00:01:12;;;;;;;7.82;3.50;;;;;;;15.39;74.78;101111.03;5039922;28;20068;-64
2022/08/29 00:03:40;;;;;;;8.43;3.72;;;;;;;15.36;75.04;101111.25;5046443;28;20063;-65
2022/08/29 00:06:09;;;;;;;12.13;4.10;;;;;;;15.35;75.29;101103.41;5045285;28;20060;-65
2022/08/29 00:08:37;;;;;;;8.25;3.53;;;;;;;15.30;75.62;101111.69;5046319;28;20526;-64
2022/08/29 00:11:06;;;;;;;7.95;3.45;;;;;;;15.24;76.40;101105.97;5044425;28;20052;-64
2022/08/29 00:13:34;;;;;;;11.55;3.47;;;;;;;15.15;76.72;101113.63;5035828;28;20049;-65
2022/08/29 00:16:01;;;;;;;12.15;3.65;;;;;;;15.13;76.36;101104.94;5047489;28;20511;-65
2022/08/29 00:18:29;;;;;;;11.95;3.97;;;;;;;15.12;77.06;101110.31;5050177;28;20131;-65
2022/08/29 00:20:57;;;;;;;13.63;3.85;;;;;;;15.10;77.36;101114.91;5045720;28;20056;-63
2022/08/29 00:23:24;;;;;;;12.90;4.20;;;;;;;15.06;77.58;101111.63;5045681;28;20632;-66
2022/08/29 00:25:51;;;;;;;16.25;4.18;;;;;;;15.10;77.66;101101.66;5067324;28;20057;-65
2022/08/29 00:28:18;;;;;;;9.70;4.07;;;;;;;15.04;78.23;101102.94;5045123;28;20056;-65
2022/08/29 00:30:45;;;;;;;12.57;4.80;;;;;;;14.97;78.95;101106.13;5045794;28;20057;-64
2022/08/29 00:33:13;;;;;;;12.57;4.13;;;;;;;14.94;79.35;101107.16;5048299;28;20052;-65
2022/08/29 00:35:41;;;;;;;9.30;3.55;;;;;;;14.91;78.98;101108.25;5050336;28;20187;-65
2022/08/29 00:38:11;;;;;;;12.38;4.30;;;;;;;14.95;79.15;101106.22;5051048;28;20048;-64
2022/08/29 00:40:41;;;;;;;9.73;4.32;;;;;;;14.92;79.63;101109.09;5046946;28;20116;-65
2022/08/29 00:43:21;;;;;;;12.20;3.67;;;;;;;14.90;79.95;101110.97;5046198;28;20053;-64
2022/08/29 00:46:14;;;;;;;14.57;4.05;;;;;;;14.90;80.44;101106.53;5050983;28;20128;-65
2022/08/29 00:48:45;;;;;;;7.97;3.63;;;;;;;14.87;80.30;101100.59;5018551;28;20045;-64
2022/08/29 00:51:16;;;;;;;10.05;4.05;;;;;;;14.85;80.78;101107.78;5045977;28;20127;-65
2022/08/29 00:53:45;;;;;;;9.77;3.78;;;;;;;14.82;81.11;101102.72;5050241;28;20061;-64
2022/08/29 00:56:14;;;;;;;11.98;3.47;;;;;;;14.81;81.05;101098.34;5045388;28;20057;-64
2022/08/29 00:58:49;;;;;;;12.60;3.88;;;;;;;14.79;81.35;101102.94;5050336;28;20045;-65
2022/08/29 01:01:16;;;;;;;13.52;3.80;;;;;;;14.76;81.64;101095.19;5046027;28;20053;-65
2022/08/29 01:03:43;;;;;;;9.48;3.83;;;;;;;14.75;82.04;101110.25;5044632;28;20041;-65
2022/08/29 01:06:12;;;;;;;9.63;4.00;;;;;;;14.72;82.51;101112.25;5045208;28;20303;-64
2022/08/29 01:08:40;;;;;;;13.30;4.05;;;;;;;14.68;82.89;101103.69;5049104;28;20045;-64
2022/08/29 01:13:55;;;;;;;8.95;4.20;;;;;;;14.73;82.68;101108.66;5047955;28;20062;-65
2022/08/29 01:16:24;;;;;;;11.30;3.65;;;;;;;14.75;82.70;101109.41;5044043;28;20061;-63
2022/08/29 01:18:55;;;;;;;12.80;3.92;;;;;;;14.72;83.19;101115.75;5048473;28;20049;-65
2022/08/29 01:21:35;;;;;;;10.25;3.47;;;;;;;14.70;83.48;101120.31;5035323;28;20070;-65
2022/08/29 01:24:14;;;;;;;12.13;3.67;;;;;;;14.66;84.08;101124.13;5060583;28;20059;-65
2022/08/29 01:26:43;;;;;;;11.18;4.20;;;;;;;14.65;84.43;101127.72;5054070;28;20424;-65
2022/08/29 01:29:11;;;;;;;14.63;4.45;;;;;;;14.64;84.41;101126.88;5044868;28;20124;-65
2022/08/29 01:31:44;;;;;;;13.88;4.03;;;;;;;14.67;84.49;101129.31;5051751;28;20049;-65
2022/08/29 01:34:25;;;;;;;14.93;4.33;;;;;;;14.67;84.84;101131.94;5049979;28;20155;-65
2022/08/29 01:36:55;;;;;;;12.00;4.30;;;;;;;14.62;85.31;101128.78;5050121;28;20079;-65
2022/08/29 01:39:25;;;;;;;14.45;4.32;;;;;;;14.60;85.21;101124.53;5031014;28;20045;-66
2022/08/29 01:41:53;;;;;;;10.15;3.83;;;;;;;14.60;85.35;101119.25;5045888;28;20399;-65
2022/08/29 01:44:21;;;;;;;10.27;3.95;;;;;;;14.57;85.60;101127.41;5046310;28;20060;-64
2022/08/29 01:46:51;;;;;;;16.13;4.85;;;;;;;14.54;85.94;101136.38;5051097;28;20057;-65
2022/08/29 01:49:19;;;;;;;10.68;3.70;;;;;;;14.49;86.32;101127.91;5039382;28;20060;-64
2022/08/29 01:51:46;;;;;;;10.85;4.03;;;;;;;14.45;86.36;101131.66;5048855;28;20136;-64
2022/08/29 01:54:14;;;;;;;12.40;4.40;;;;;;;14.48;86.11;101141.22;5037993;28;20061;-64
2022/08/29 01:56:47;;;;;;;11.13;4.53;;;;;;;14.45;86.76;101142.25;5056536;28;20053;-65
2022/08/29 01:59:18;;;;;;;10.45;3.92;;;;;;;14.42;86.68;101137.19;5044496;28;20048;-65
2022/08/29 02:01:51;;;;;;;12.23;4.28;;;;;;;14.41;86.58;101132.84;5048579;28;20045;-65
2022/08/29 02:04:19;;;;;;;12.15;3.75;;;;;;;14.40;87.20;101139.09;5060970;28;20051;-64
2022/08/29 02:06:46;;;;;;;13.77;4.18;;;;;;;14.38;87.17;101143.66;5051559;28;20053;-64
2022/08/29 02:09:13;;;;;;;11.80;4.20;;;;;;;14.35;87.49;101139.38;5047727;28;20044;-65
2022/08/29 02:11:40;;;;;;;12.57;4.25;;;;;;;14.34;87.25;101134.19;5049000;28;20060;-65
2022/08/29 02:14:07;;;;;;;14.48;4.38;;;;;;;14.35;87.14;101133.25;5048555;28;20412;-65
2022/08/29 02:16:46;;;;;;;10.73;4.05;;;;;;;14.33;87.29;101137.81;5061657;28;20053;-62
2022/08/29 02:19:14;;;;;;;6.20;3.22;;;;;;;14.34;87.15;101144.78;5041968;28;20514;-64
2022/08/29 02:21:43;;;;;;;10.27;4.32;;;;;;;14.36;87.11;101129.63;5047267;28;20106;-63
2022/08/29 02:24:10;;;;;;;15.57;4.65;;;;;;;14.33;87.12;101122.75;5050049;28;20053;-66
2022/08/29 02:26:54;;;;;;;12.88;4.00;;;;;;;14.33;87.23;101130.72;5045501;28;20048;-64
2022/08/29 02:29:21;;;;;;;9.45;3.97;;;;;;;14.32;87.13;101134.31;5062101;28;20051;-65
2022/08/29 02:31:49;;;;;;;13.38;4.05;;;;;;;14.32;87.15;101131.66;5045539;28;20060;-64
2022/08/29 02:34:16;;;;;;;9.48;4.18;;;;;;;14.30;87.09;101133.56;5042727;28;20052;-65
2022/08/29 02:36:44;;;;;;;12.93;4.30;;;;;;;14.19;88.35;101136.91;5046121;28;20049;-64
2022/08/29 02:39:15;;;;;;;12.43;4.43;;;;;;;14.16;88.22;101123.88;5045933;28;20370;-65
2022/08/29 02:41:42;;;;;;;12.43;4.07;;;;;;;14.14;88.21;101133.72;5045856;28;20062;-64
2022/08/29 02:44:10;;;;;;;8.88;3.95;;;;;;;14.13;88.27;101131.16;5046002;28;20072;-65
2022/08/29 02:46:37;;;;;;;14.02;4.28;;;;;;;14.12;88.68;101137.41;5040563;28;20061;-66
2022/08/29 02:49:05;;;;;;;11.20;3.85;;;;;;;14.08;88.80;101134.13;5043173;28;20045;-64
2022/08/29 02:51:33;;;;;;;13.32;4.22;;;;;;;14.04;88.96;101139.72;5040791;28;20044;-63
2022/08/29 02:54:01;;;;;;;10.73;4.38;;;;;;;14.05;89.01;101136.09;5044937;28;20053;-65
2022/08/29 02:56:28;;;;;;;15.15;4.50;;;;;;;14.07;88.74;101145.66;5042193;28;20055;-65
2022/08/29 02:58:56;;;;;;;11.15;4.32;;;;;;;14.05;88.64;101141.41;5042141;28;20336;-66
2022/08/29 03:01:24;;;;;;;12.35;3.88;;;;;;;14.02;88.95;101146.91;5049616;28;20069;-64
2022/08/29 03:03:52;;;;;;;10.15;4.68;;;;;;;14.00;88.94;101140.84;5044338;28;20045;-65
2022/08/29 03:06:20;;;;;;;9.63;3.72;;;;;;;13.97;89.29;101144.56;5043218;28;20064;-63
2022/08/29 03:08:48;;;;;;;13.10;4.72;;;;;;;13.92;89.65;101139.56;5058112;28;20546;-64
2022/08/29 03:11:16;;;;;;;13.45;4.65;;;;;;;13.92;89.45;101134.28;5043178;28;20067;-65
2022/08/29 03:13:44;;;;;;;17.23;4.72;;;;;;;13.90;89.65;101130.88;5042978;28;20702;-64
2022/08/29 03:16:12;;;;;;;9.50;4.22;;;;;;;13.88;89.76;101131.94;5044873;28;20061;-65
2022/08/29 03:18:40;;;;;;;13.15;4.10;;;;;;;13.85;90.55;101137.41;5048939;28;20451;-65
2022/08/29 03:21:19;;;;;;;10.65;4.35;;;;;;;13.83;90.37;101131.38;5027651;28;20052;-65
2022/08/29 03:23:48;;;;;;;12.27;4.10;;;;;;;13.81;90.86;101130.63;5045367;28;20049;-65
2022/08/29 03:26:15;;;;;;;11.27;4.55;;;;;;;13.79;90.66;101133.38;5044370;28;20055;-66
2022/08/29 03:28:43;;;;;;;8.27;3.65;;;;;;;13.78;91.02;101130.81;5046501;28;20067;-65
2022/08/29 03:31:10;;;;;;;17.08;4.53;;;;;;;13.77;90.76;101129.97;5046025;28;20052;-64
2022/08/29 03:33:37;;;;;;;10.32;3.70;;;;;;;13.78;90.85;101131.69;5041600;28;20057;-66
2022/08/29 03:36:07;;;;;;;12.30;3.90;;;;;;;13.76;91.13;101132.72;5048242;28;20052;-65
2022/08/29 03:38:41;;;;;;;;;;;;;;;13.74;90.83;101131.97;5043454;28;20086;-65
2022/08/29 03:41:08;;;;;;;11.57;4.55;;;;;;;13.74;90.43;101127.53;5042018;28;19928;-64
2022/08/29 03:43:36;;;;;;;10.55;3.78;;;;;;;13.73;91.41;101122.31;5044780;28;20164;-64
2022/08/29 03:46:03;;;;;;;11.85;4.22;;;;;;;13.70;91.46;101122.53;5044706;28;20123;-65
2022/08/29 03:48:32;;;;;;;15.00;4.10;;;;;;;13.66;91.60;101122.72;5043872;28;20052;-67
2022/08/29 03:50:59;;;;;;;16.20;5.32;;;;;;;13.63;91.64;101125.53;5049969;28;20044;-64
2022/08/29 03:53:26;;;;;;;12.10;4.28;;;;;;;13.59;91.55;101131.97;5038230;28;20057;-66
2022/08/29 03:55:53;;;;;;;10.95;4.05;;;;;;;13.54;91.90;101123.50;5043621;28;20052;-64
2022/08/29 03:58:21;;;;;;;14.85;4.60;;;;;;;13.56;91.50;101128.69;5044505;28;20194;-66
2022/08/29 04:00:48;;;;;;;8.75;4.03;;;;;;;13.54;91.24;101128.78;5046768;28;20053;-65
2022/08/29 04:03:15;;;;;;;9.30;4.55;;;;;;;13.50;91.53;101129.06;5043093;28;20115;-65
2022/08/29 04:05:43;;;;;;;14.85;4.65;;;;;;;13.45;91.38;101132.00;5042240;28;20248;-63
2022/08/29 04:08:10;;;;;;;10.90;3.78;;;;;;;13.46;91.12;101130.22;5042380;28;21272;-65
2022/08/29 04:10:38;;;;;;;13.43;4.50;;;;;;;13.44;91.50;101135.59;5058745;28;20080;-64
2022/08/29 04:13:07;;;;;;;13.98;4.55;;;;;;;13.41;91.69;101135.78;5042704;28;20057;-64
2022/08/29 04:15:36;;;;;;;14.18;5.43;;;;;;;13.37;91.81;101139.56;5027147;28;20127;-65
2022/08/29 04:18:05;;;;;;;11.25;4.05;;;;;;;13.38;91.82;101133.34;5040381;28;20081;-64
2022/08/29 04:20:37;;;;;;;15.45;4.82;;;;;;;13.42;91.69;101129.56;5040690;28;20044;-63
2022/08/29 04:23:05;;;;;;;11.40;4.63;;;;;;;13.42;91.56;101126.94;5045285;28;20053;-64
2022/08/29 04:25:35;;;;;;;13.60;4.90;;;;;;;13.40;91.91;101132.28;5045814;28;20125;-65
2022/08/29 04:28:05;;;;;;;10.10;4.25;;;;;;;13.39;91.78;101142.97;5047237;28;20388;-64
2022/08/29 04:30:33;;;;;;;11.20;4.10;;;;;;;13.40;92.43;101142.88;5041645;28;20439;-65
2022/08/29 04:33:00;;;;;;;12.93;4.95;;;;;;;13.40;92.43;101148.16;5043278;28;20045;-65
2022/08/29 04:35:28;;;;;;;15.60;4.75;;;;;;;13.43;92.79;101141.84;5047726;28;20056;-67
2022/08/29 04:37:55;;;;;;;9.10;4.57;;;;;;;13.43;93.25;101145.34;5045280;28;20065;-65
2022/08/29 04:40:22;;;;;;;10.10;4.28;;;;;;;13.49;92.40;101136.16;5041746;28;20052;-65
2022/08/29 04:42:50;;;;;;;10.40;4.18;;;;;;;13.52;93.00;101146.56;5043512;28;20068;-65
2022/08/29 04:45:21;;;;;;;12.70;4.70;;;;;;;13.53;92.93;101152.69;5044762;28;20068;-67
2022/08/29 04:47:49;;;;;;;12.13;5.20;;;;;;;13.53;93.54;101153.53;5044245;28;20518;-64
2022/08/29 04:50:19;;;;;;;11.65;5.00;;;;;;;13.56;93.45;101148.06;5046792;28;20488;-65
2022/08/29 04:52:47;;;;;;;10.95;4.78;;;;;;;13.63;92.79;101148.50;5041118;28;20057;-65
2022/08/29 04:55:15;;;;;;;14.50;5.40;;;;;;;13.65;94.09;101150.13;5044917;28;20423;-64
2022/08/29 04:57:49;;;;;;;18.55;5.60;;;;;;;13.64;95.67;101161.66;5040648;28;20088;-65
2022/08/29 05:00:20;;;;;;;15.32;6.55;;;;;;;13.63;95.97;101144.06;5043978;28;20044;-65
2022/08/29 05:02:50;;;;;;;13.75;5.40;;;;;;;13.61;96.87;101140.69;5043855;28;20120;-68
2022/08/29 05:05:18;;;;;;;13.60;6.00;;;;;;;13.64;96.19;101139.63;5046077;28;20072;-65
2022/08/29 05:07:45;;;;;;;19.23;5.47;;;;;;;13.66;96.48;101140.38;5049779;28;20541;-65
2022/08/29 05:10:17;;;;;;;16.35;5.22;;;;;;;13.69;97.14;101148.16;5042428;28;20379;-64
2022/08/29 05:12:45;;;;;;;16.73;6.20;;;;;;;13.63;97.63;101154.66;5044697;28;20056;-65
2022/08/29 05:15:13;;;;;;;17.38;6.40;;;;;;;13.58;99.46;101155.91;5046316;28;20060;-65
2022/08/29 05:17:44;;;;;;;18.67;7.50;;;;;;;13.55;99.83;101162.22;5044159;28;20065;-66
2022/08/29 05:20:12;;;;;;;15.23;6.38;;;;;;;13.46;100.00;101165.44;4963586;28;20049;-60
2022/08/29 05:22:40;;;;;;;11.20;6.13;;;;;;;13.50;100.00;101169.59;4972150;28;20070;-63
2022/08/29 05:25:11;;;;;;;19.45;7.85;;;;;;;13.51;100.00;101173.97;4966452;28;20171;-64
2022/08/29 05:27:45;;;;;;;19.58;7.75;;;;;;;13.51;100.00;101176.59;4970174;28;20069;-62
2022/08/29 05:30:13;;;;;;;15.65;7.93;;;;;;;13.49;100.00;101173.19;4988405;28;20412;-63
2022/08/29 05:32:40;;;;;;;19.08;7.78;;;;;;;13.47;100.00;101174.25;4990847;28;20054;-64
2022/08/29 05:35:07;;;;;;;18.83;7.20;;;;;;;13.46;100.00;101180.47;4986964;28;20397;-65
2022/08/29 05:37:35;;;;;;;15.75;7.57;;;;;;;13.49;100.00;101178.47;4993463;28;20503;-65
2022/08/29 05:40:03;;;;;;;22.92;8.05;;;;;;;13.55;100.00;101177.25;4989549;28;20046;-64
2022/08/29 05:42:30;;;;;;;18.75;8.07;;;;;;;13.63;100.00;101182.91;5001708;28;20055;-64
2022/08/29 05:44:58;;;;;;;17.85;8.10;;;;;;;13.67;100.00;101185.25;5000208;28;20065;-64
2022/08/29 05:47:25;;;;;;;23.65;8.65;;;;;;;13.73;100.00;101175.22;4989064;28;20143;-63
2022/08/29 05:49:52;;;;;;;28.17;8.98;;;;;;;13.75;100.00;101182.13;4988166;28;20080;-64
2022/08/29 05:52:20;;;;;;;17.65;8.23;;;;;;;13.79;100.00;101177.50;4983683;28;20065;-63
2022/08/29 05:54:47;;;;;;;18.75;8.15;;;;;;;13.84;100.00;101175.41;4988230;28;20046;-64
2022/08/29 05:57:18;;;;;;;20.95;8.88;;;;;;;13.92;100.00;101176.63;4990721;28;20050;-63
2022/08/29 05:59:47;;;;;;;18.00;7.47;;;;;;;13.99;100.00;101182.38;4989092;28;20592;-63
2022/08/29 06:02:15;;;;;;;16.67;7.95;;;;;;;14.05;100.00;101179.34;4988016;28;20149;-64
2022/08/29 06:04:42;;;;;;;22.00;8.40;;;;;;;14.13;100.00;101181.47;4992180;28;20057;-63
2022/08/29 06:07:10;;;;;;;21.13;7.85;;;;;;;14.19;100.00;101181.09;4988971;28;20050;-62
2022/08/29 06:09:39;;;;;;;25.33;8.48;;;;;;;14.22;100.00;101172.94;4995455;28;20078;-63
2022/08/29 06:12:07;;;;;;;19.45;7.88;;;;;;;14.26;100.00;101182.38;4993210;28;20520;-64
2022/08/29 06:14:34;;;;;;;17.88;7.40;;;;;;;14.31;100.00;101182.06;5014272;28;20108;-62
2022/08/29 06:17:03;;;;;;;21.05;7.15;;;;;;;14.37;100.00;101171.09;4986198;28;20082;-63
2022/08/29 06:19:33;;;;;;;15.18;6.13;;;;;;;14.43;100.00;101176.81;4991654;28;20081;-63
2022/08/29 06:22:02;;;;;;;17.67;6.68;;;;;;;14.51;100.00;101179.00;5008875;28;20043;-64
2022/08/29 06:24:32;;;;;;;23.30;7.05;;;;;;;14.57;100.00;101178.59;4989156;28;20081;-64
2022/08/29 06:27:00;;;;;;;21.10;7.28;;;;;;;14.64;100.00;101186.97;4989592;28;20515;-63
2022/08/29 06:29:27;;;;;;;11.77;5.68;;;;;;;14.67;100.00;101184.94;4989502;28;20201;-62
2022/08/29 06:31:55;;;;;;;17.38;6.80;;;;;;;14.69;100.00;101190.16;4995016;28;20180;-62
2022/08/29 06:34:23;;;;;;;24.02;7.35;;;;;;;14.71;100.00;101195.34;4990030;28;20132;-62
2022/08/29 06:36:50;;;;;;;17.58;6.15;;;;;;;14.73;100.00;101191.66;4992905;28;20088;-62
2022/08/29 06:39:18;;;;;;;12.00;6.13;;;;;;;14.78;100.00;101194.84;4992531;28;20109;-63
2022/08/29 06:41:46;;;;;;;15.77;6.22;;;;;;;14.81;100.00;101196.44;4989246;28;20408;-64
2022/08/29 06:44:13;;;;;;;14.88;7.35;;;;;;;14.84;100.00;101201.53;4985999;28;20485;-63
2022/08/29 06:46:44;;;;;;;19.52;6.82;;;;;;;14.87;100.00;101204.00;4991212;28;20068;-63
2022/08/29 06:49:13;;;;;;;18.08;7.35;;;;;;;14.90;100.00;101201.09;5006023;28;20146;-63
2022/08/29 06:51:42;;;;;;;21.15;6.32;;;;;;;14.93;100.00;101200.91;4982754;28;20342;-64
2022/08/29 06:54:10;;;;;;;15.02;7.20;;;;;;;14.96;100.00;101205.16;5029098;28;20125;-63
2022/08/29 06:56:38;;;;;;;18.38;7.45;;;;;;;14.99;100.00;101200.47;4990403;28;20054;-63
2022/08/29 06:59:08;;;;;;;15.32;6.75;;;;;;;15.02;100.00;101194.97;4987813;28;20452;-64
2022/08/29 07:01:36;;;;;;;21.85;6.57;;;;;;;15.08;100.00;101204.31;4985605;28;20050;-64
2022/08/29 07:04:03;;;;;;;20.08;7.72;;;;;;;15.10;100.00;101208.56;4982696;28;20156;-64
2022/08/29 07:06:31;;;;;;;17.27;6.22;;;;;;;15.14;100.00;101209.22;4990518;28;20138;-64
2022/08/29 07:08:58;;;;;;;11.98;5.72;;;;;;;15.19;100.00;101210.59;4991620;28;20566;-62
2022/08/29 07:11:28;;;;;;;21.23;6.72;;;;;;;15.26;100.00;101221.59;4983486;28;20058;-64
2022/08/29 07:13:58;;;;;;;19.35;6.72;;;;;;;15.30;100.00;101219.59;4988164;28;20057;-64
2022/08/29 07:16:25;;;;;;;14.85;5.88;;;;;;;15.32;100.00;101223.84;4984143;28;20046;-64
2022/08/29 07:18:53;;;;;;;16.38;6.30;;;;;;;15.34;100.00;101223.72;4986655;28;20415;-63
2022/08/29 07:21:22;;;;;;;17.27;6.45;;;;;;;15.35;100.00;101223.63;4991559;28;20653;-64
2022/08/29 07:23:51;;;;;;;21.27;7.97;;;;;;;15.38;100.00;101220.75;4984487;28;20074;-63
2022/08/29 07:26:19;;;;;;;14.48;5.70;;;;;;;15.40;100.00;101221.53;4983080;28;20050;-64
2022/08/29 07:28:51;;;;;;;19.27;6.68;;;;;;;15.45;99.87;101227.34;4985333;28;20048;-63
2022/08/29 07:31:18;;;;;;;22.85;6.60;;;;;;;15.48;99.78;101228.91;4986916;28;20520;-64
2022/08/29 07:33:46;;;;;;;20.35;6.90;;;;;;;15.45;99.28;101222.03;4986698;28;20145;-64
2022/08/29 07:36:23;;;;;;;14.00;6.70;;;;;;;15.44;99.45;101232.75;4980281;28;20057;-63
2022/08/29 07:38:50;;;;;;;16.13;5.93;;;;;;;15.48;99.34;101230.72;4988289;28;20062;-64
2022/08/29 07:41:17;;;;;;;17.83;5.93;;;;;;;15.51;99.04;101234.03;4984170;28;20044;-63
2022/08/29 07:43:44;;;;;;;11.55;5.22;;;;;;;15.53;98.74;101241.88;4987242;28;20274;-63
2022/08/29 07:46:13;;;;;;;13.70;5.95;;;;;;;15.52;98.68;101238.38;4984523;28;20054;-64
2022/08/29 07:48:42;;;;;;;11.98;6.45;;;;;;;15.51;98.22;101235.84;4988517;28;20166;-64
2022/08/29 07:51:14;;;;;;;17.50;7.00;;;;;;;15.42;98.98;101239.97;4988317;28;20046;-64
2022/08/29 07:53:41;;;;;;;14.98;5.55;;;;;;;15.45;99.09;101239.78;4984294;28;20055;-63
2022/08/29 07:56:14;;;;;;;16.42;6.03;;;;;;;15.49;99.12;101243.03;4986436;28;20050;-62
2022/08/29 07:58:42;;;;;;;19.70;6.45;;;;;;;15.54;99.14;101251.56;4988067;28;20068;-64
2022/08/29 08:01:09;;;;;;;15.43;6.15;;;;;;;15.57;98.99;101254.81;4988093;28;20050;-64
2022/08/29 08:03:49;;;;;;;13.35;5.80;;;;;;;15.60;98.81;101248.47;4984523;28;20054;-63
2022/08/29 08:06:18;;;;;;;14.15;6.25;;;;;;;15.64;98.94;101250.81;4988700;28;20054;-62
2022/08/29 08:08:46;;;;;;;15.40;5.88;;;;;;;15.69;98.60;101258.47;4990656;28;20054;-64
2022/08/29 08:11:17;;;;;;;14.02;6.47;;;;;;;15.73;98.30;101262.59;4984896;28;20038;-63
2022/08/29 08:13:45;;;;;;;19.38;6.68;;;;;;;15.74;98.09;101256.31;4984435;28;20043;-63
2022/08/29 08:16:17;;;;;;;13.68;6.05;;;;;;;15.74;98.19;101258.13;4988353;28;20057;-63
2022/08/29 08:18:45;;;;;;;16.27;6.38;;;;;;;15.81;98.46;101251.44;4987172;28;20503;-64
2022/08/29 08:21:12;;;;;;;19.65;5.78;;;;;;;15.89;98.28;101257.03;4987029;28;20436;-63
2022/08/29 08:23:39;;;;;;;15.45;5.57;;;;;;;15.98;97.90;101255.53;4988932;28;20058;-63
2022/08/29 08:26:09;;;;;;;18.25;6.35;;;;;;;16.09;97.69;101271.56;4986034;28;20080;-63
2022/08/29 08:28:36;;;;;;;12.35;6.05;;;;;;;16.12;97.09;101260.69;4992381;28;20152;-63
2022/08/29 08:31:06;;;;;;;13.80;6.60;;;;;;;16.11;96.85;101264.31;4991796;28;20069;-63
2022/08/29 08:33:34;;;;;;;20.05;7.15;;;;;;;16.10;96.87;101273.25;4991369;28;20064;-63
2022/08/29 08:36:04;;;;;;;15.85;6.40;;;;;;;16.09;97.15;101271.56;4992771;28;20053;-63
2022/08/29 08:38:32;;;;;;;10.68;5.63;;;;;;;16.12;96.85;101273.97;5004718;28;20058;-63
2022/08/29 08:41:05;;;;;;;14.77;6.70;;;;;;;16.16;96.58;101278.97;4998315;28;20079;-63
2022/08/29 08:43:43;;;;;;;12.93;5.50;;;;;;;16.17;96.42;101279.84;5013241;28;20057;-63
2022/08/29 08:46:11;;;;;;;16.23;5.95;;;;;;;16.19;96.13;101280.56;4985999;28;20046;-64
2022/08/29 08:48:38;;;;;;;18.15;6.78;;;;;;;16.18;96.38;101277.06;4993445;28;20058;-63
2022/08/29 08:51:20;;;;;;;16.63;6.43;;;;;;;16.25;96.81;101276.59;4989538;28;20396;-63
2022/08/29 08:53:49;;;;;;;10.30;5.93;;;;;;;16.33;96.93;101264.47;4989263;28;20370;-62
2022/08/29 08:56:45;;;;;;;18.52;6.95;;;;;;;16.41;96.75;101267.41;5022103;28;20074;-63
2022/08/29 08:59:22;;;;;;;13.57;6.43;;;;;;;16.45;96.29;101263.56;4988002;28;20417;-63
2022/08/29 09:02:25;;;;;;;15.68;6.28;;;;;;;16.52;96.17;101263.13;4986429;28;20042;-63
2022/08/29 09:05:30;;;;;;;12.95;6.22;;;;;;;16.54;96.30;101267.38;4991463;28;20057;-61
2022/08/29 09:08:06;;;;;;;13.23;5.82;;;;;;;16.58;95.69;101270.66;4987107;28;20055;-62
2022/08/29 09:10:53;;;;;;;14.18;5.38;;;;;;;16.71;96.22;101271.44;4986969;28;20046;-60
2022/08/29 09:13:45;;;;;;;19.75;5.85;;;;;;;16.82;95.65;101270.66;4988204;28;20408;-61
2022/08/29 09:16:22;;;;;;;11.88;6.65;;;;;;;16.89;94.75;101280.75;4983934;28;20070;-63
2022/08/29 09:18:51;;;;;;;12.95;5.25;;;;;;;16.89;94.27;101275.41;4987764;28;20054;-63
2022/08/29 09:21:22;;;;;;;16.05;5.72;;;;;;;16.88;94.61;101272.84;4989608;28;20053;-64
2022/08/29 09:24:12;;;;;;;14.52;5.85;;;;;;;16.88;94.59;101283.50;4988040;28;20464;-61
2022/08/29 09:26:39;;;;;;;18.20;5.40;;;;;;;16.85;94.88;101281.94;4989070;28;20064;-61
2022/08/29 09:29:08;;;;;;;11.90;5.53;;;;;;;16.94;94.79;101280.41;4988398;28;20153;-62
2022/08/29 09:31:36;;;;;;;14.40;5.38;;;;;;;16.97;94.62;101288.13;4985922;28;20046;-64
2022/08/29 09:34:07;;;;;;;11.77;5.20;;;;;;;17.09;94.67;101283.69;4991171;28;20054;-63
2022/08/29 09:36:43;;;;;;;8.68;4.90;;;;;;;17.20;94.69;101283.72;4985583;28;20424;-62
2022/08/29 09:39:27;;;;;;;14.90;5.63;;;;;;;17.27;93.27;101284.09;4986443;28;20053;-63
2022/08/29 09:41:58;;;;;;;16.63;6.45;;;;;;;17.26;93.32;101285.09;4988643;28;20047;-62
2022/08/29 09:44:27;;;;;;;14.50;6.18;;;;;;;17.30;93.13;101286.53;4988634;28;20073;-63
2022/08/29 09:47:10;;;;;;;9.63;5.35;;;;;;;17.37;93.13;101285.09;4994625;28;20372;-63
2022/08/29 09:49:39;;;;;;;17.02;6.43;;;;;;;17.38;92.25;101287.66;4996275;28;20066;-63
2022/08/29 09:52:10;;;;;;;10.70;5.18;;;;;;;17.41;92.22;101283.91;4996004;28;20057;-63
2022/08/29 09:54:37;;;;;;;11.40;5.28;;;;;;;17.45;92.53;101285.34;4988003;28;20516;-63
2022/08/29 09:57:25;;;;;;;10.65;5.03;;;;;;;17.35;92.24;101290.53;4993000;28;20058;-61
2022/08/29 10:00:16;;;;;;;10.93;4.93;;;;;;;17.40;92.83;101284.88;5019868;28;20058;-62
2022/08/29 10:02:52;;;;;;;13.18;5.43;;;;;;;17.48;92.98;101282.47;4989624;28;20042;-62
2022/08/29 10:05:40;;;;;;;9.93;5.32;;;;;;;17.55;92.62;101285.47;4991269;28;20065;-62
2022/08/29 10:08:34;;;;;;;11.43;5.50;;;;;;;17.54;91.57;101299.78;5018000;28;20054;-61
2022/08/29 10:11:07;;;;;;;11.00;4.90;;;;;;;17.49;91.47;101300.13;4987971;28;20070;-62
2022/08/29 10:13:53;;;;;;;13.93;6.45;;;;;;;17.51;92.03;101295.50;4999820;28;20532;-62
2022/08/29 10:16:33;;;;;;;12.02;5.70;;;;;;;17.48;92.68;101287.78;5001319;28;20046;-62
2022/08/29 10:19:24;;;;;;;11.95;5.55;;;;;;;17.59;92.22;101301.09;4984428;28;20050;-62
2022/08/29 10:22:19;;;;;;;11.07;5.43;;;;;;;17.64;91.59;101290.09;5003151;28;20058;-61
2022/08/29 10:25:03;;;;;;;12.52;5.47;;;;;;;17.66;91.20;101286.34;4990318;28;20434;-63
2022/08/29 10:27:55;;;;;;;14.82;5.68;;;;;;;17.63;91.43;101297.22;4999079;28;20050;-64
2022/08/29 10:30:28;;;;;;;13.77;5.65;;;;;;;17.69;91.72;101294.09;4984560;28;20050;-62
2022/08/29 10:33:14;;;;;;;9.93;5.70;;;;;;;17.66;91.36;101302.34;4999530;28;20050;-62
2022/08/29 10:35:53;;;;;;;14.68;6.45;;;;;;;17.62;91.54;101298.22;4983204;28;20093;-62
2022/08/29 10:38:33;;;;;;;11.85;5.30;;;;;;;17.64;91.51;101300.75;4983222;28;20058;-62
2022/08/29 10:41:04;;;;;;;12.32;6.07;;;;;;;17.71;91.82;101308.16;5002731;28;20055;-62
2022/08/29 10:43:49;;;;;;;10.88;5.60;;;;;;;17.79;91.99;101299.59;4999881;28;20065;-63
2022/08/29 10:46:25;;;;;;;;;;;;;;;17.87;91.58;101304.28;4988344;28;20064;-62
2022/08/29 10:49:19;;;;;;;14.23;5.63;;;;;;;17.89;91.34;101305.03;4980402;28;20302;-61
2022/08/29 10:52:18;;;;;;;9.13;5.15;;;;;;;17.93;90.86;101304.69;4987303;28;20065;-62
2022/08/29 10:54:51;;;;;;;13.93;5.75;;;;;;;17.98;91.02;101311.47;5001732;28;20396;-62
2022/08/29 10:57:43;;;;;;;10.45;5.75;;;;;;;18.02;90.30;101312.91;4984155;28;20150;-61
2022/08/29 11:00:13;;;;;;;11.90;5.38;;;;;;;18.09;90.65;101306.09;4989627;28;20141;-62
2022/08/29 11:03:03;;;;;;;16.48;5.55;;;;;;;18.14;90.10;101303.91;4984423;28;20058;-62
2022/08/29 11:05:37;;;;;;;11.25;5.65;;;;;;;18.18;89.76;101300.88;4984355;28;20050;-62
2022/08/29 11:08:09;;;;;;;12.13;6.03;;;;;;;18.23;89.52;101313.84;4997398;28;20058;-63
2022/08/29 11:10:44;;;;;;;13.63;5.72;;;;;;;18.23;89.44;101298.69;4987075;28;20066;-62
2022/08/29 11:13:17;;;;;;;9.82;5.30;;;;;;;18.33;89.56;101303.31;4984530;28;20146;-62
2022/08/29 11:15:54;;;;;;;12.52;6.00;;;;;;;18.42;88.68;101292.75;4986930;28;20061;-63
2022/08/29 11:18:34;;;;;;;16.95;6.22;;;;;;;18.54;88.13;101300.69;4984698;28;20046;-62
2022/08/29 11:21:16;;;;;;;13.52;6.40;;;;;;;18.62;87.56;101291.09;5055841;23;20059;-77
2022/08/29 11:23:46;;;;;;;12.88;5.43;;;;;;;18.79;87.43;101283.56;5048843;28;20531;-77
2022/08/29 11:26:38;;;;;;;13.38;5.68;;;;;;;18.85;85.85;101280.38;5046779;28;20040;-77
2022/08/29 11:29:38;;;;;;;11.43;6.25;;;;;;;19.02;85.87;101265.63;5061012;28;20054;-77
2022/08/29 11:32:18;;;;;;;13.43;5.78;;;;;;;19.28;84.66;101274.97;5064156;28;20393;-77
2022/08/29 11:35:09;;;;;;;10.18;5.10;;;;;;;19.46;83.19;101272.53;5045539;28;20052;-75
2022/08/29 11:37:57;;;;;;;13.25;4.70;;;;;;;19.68;82.60;101275.06;5039831;28;20060;-77
2022/08/29 11:40:49;;;;;;;9.57;4.60;;;;;;;19.89;81.25;101284.84;5071930;28;20060;-78